Time;durP1;ratioP1;P1;durP2;ratioP2;P2;SDS_P1;SDS_P2;PMS_P1;PMS_P2;Temp;Humidity;BMP_temperature;BMP_pressure;BME280_temperature;BME280_humidity;BME280_pressure;Samples;Min_cycle;Max_cycle;Signal;HPM_P1;HPM_P2
2023/03/06 00:00:52;;;;;;;13.50;9.60;;;7.60;66.60;;;;;;5014407;28;20049;-46
2023/03/06 00:03:23;;;;;;;12.07;9.38;;;7.60;66.60;;;;;;5019485;28;20045;-45
2023/03/06 00:05:49;;;;;;;13.63;9.43;;;7.60;66.80;;;;;;5010271;28;20157;-46
2023/03/06 00:08:19;;;;;;;13.27;9.30;;;7.60;66.80;;;;;;5009524;28;20034;-46
2023/03/06 00:10:47;;;;;;;14.75;9.82;;;7.60;66.70;;;;;;5013272;28;20054;-45
2023/03/06 00:13:21;;;;;;;15.57;11.15;;;7.60;66.60;;;;;;5014164;28;20541;-46
2023/03/06 00:15:57;;;;;;;14.98;10.55;;;7.60;66.70;;;;;;5010208;28;20454;-46
2023/03/06 00:18:25;;;;;;;13.68;10.85;;;7.60;66.50;;;;;;5011060;28;20060;-45
2023/03/06 00:20:57;;;;;;;13.23;10.18;;;7.50;66.40;;;;;;5005095;28;20053;-45
2023/03/06 00:23:26;;;;;;;17.52;11.50;;;7.50;66.60;;;;;;5018379;28;20050;-44
2023/03/06 00:25:52;;;;;;;12.75;10.52;;;7.50;66.50;;;;;;5009485;28;20050;-46
2023/03/06 00:28:19;;;;;;;15.07;11.60;;;7.50;66.50;;;;;;5010406;28;20065;-46
2023/03/06 00:30:48;;;;;;;14.02;11.05;;;7.50;66.60;;;;;;4996878;28;20128;-46
2023/03/06 00:33:15;;;;;;;15.02;11.77;;;7.50;66.70;;;;;;5008213;28;20045;-46
2023/03/06 00:35:44;;;;;;;15.10;11.77;;;7.50;66.50;;;;;;4992320;28;20419;-49
2023/03/06 00:38:14;;;;;;;18.40;12.23;;;7.40;66.60;;;;;;5009939;28;20080;-46
2023/03/06 00:40:40;;;;;;;16.90;11.48;;;7.50;66.70;;;;;;5017260;28;20045;-47
2023/03/06 00:43:11;;;;;;;14.20;11.38;;;7.40;66.60;;;;;;5011913;28;20041;-48
2023/03/06 00:45:42;;;;;;;17.33;12.32;;;7.40;66.70;;;;;;4992002;28;20410;-48
2023/03/06 00:48:23;;;;;;;15.18;12.05;;;7.40;66.60;;;;;;4999978;28;20128;-48
2023/03/06 00:50:50;;;;;;;17.73;12.70;;;7.40;66.60;;;;;;5002437;28;20569;-45
2023/03/06 00:53:17;;;;;;;17.35;12.13;;;7.40;66.60;;;;;;5019564;28;20038;-47
2023/03/06 00:55:45;;;;;;;16.13;12.02;;;7.40;66.70;;;;;;4991901;28;20044;-48
2023/03/06 00:58:11;;;;;;;17.08;12.95;;;7.40;66.80;;;;;;5009701;28;20074;-46
2023/03/06 01:00:41;;;;;;;16.73;12.68;;;7.40;67.00;;;;;;5001300;28;20045;-46
2023/03/06 01:03:11;;;;;;;18.55;12.80;;;7.30;67.10;;;;;;4995335;28;20050;-45
2023/03/06 01:05:40;;;;;;;18.88;12.55;;;7.30;67.80;;;;;;5009222;28;20053;-47
2023/03/06 01:08:14;;;;;;;17.88;12.77;;;7.30;67.20;;;;;;4992677;28;20108;-46
2023/03/06 01:10:44;;;;;;;16.00;12.52;;;7.30;67.40;;;;;;5018604;28;20083;-48
2023/03/06 01:13:10;;;;;;;17.55;12.90;;;7.30;67.20;;;;;;4994198;28;20038;-46
2023/03/06 01:15:39;;;;;;;17.42;12.55;;;7.30;67.20;;;;;;5009466;28;20042;-49
2023/03/06 01:18:08;;;;;;;20.58;13.80;;;7.30;67.30;;;;;;4999089;28;20050;-48
2023/03/06 01:20:38;;;;;;;19.42;13.80;;;7.30;67.30;;;;;;5011608;28;20037;-46
2023/03/06 01:23:05;;;;;;;16.65;13.25;;;7.30;67.40;;;;;;5019946;28;20049;-48
2023/03/06 01:25:35;;;;;;;18.85;14.38;;;7.30;67.50;;;;;;4991593;28;20069;-47
2023/03/06 01:28:01;;;;;;;19.60;13.88;;;7.30;67.50;;;;;;4991939;28;20056;-48
2023/03/06 01:30:37;;;;;;;21.38;14.48;;;7.30;67.50;;;;;;4997669;28;20120;-45
2023/03/06 01:33:10;;;;;;;20.73;14.55;;;7.30;67.60;;;;;;5018767;28;20046;-45
2023/03/06 01:35:38;;;;;;;19.20;13.50;;;7.30;67.50;;;;;;5009182;28;20049;-47
2023/03/06 01:38:10;;;;;;;23.83;16.75;;;7.30;67.50;;;;;;4991394;28;20042;-47
2023/03/06 01:40:37;;;;;;;22.65;16.10;;;7.30;67.40;;;;;;5002685;28;20045;-46
2023/03/06 01:43:22;;;;;;;22.80;15.48;;;7.30;67.50;;;;;;5014251;28;20462;-48
2023/03/06 01:45:55;;;;;;;23.33;15.65;;;7.30;67.90;;;;;;4995257;28;20064;-47
2023/03/06 01:48:25;;;;;;;23.25;15.55;;;7.30;67.50;;;;;;5012941;28;20046;-46
2023/03/06 01:50:58;;;;;;;21.45;16.05;;;7.30;67.50;;;;;;5008084;28;20052;-50
2023/03/06 01:53:27;;;;;;;22.20;14.85;;;7.30;67.50;;;;;;5020892;28;20038;-47
2023/03/06 01:55:54;;;;;;;20.58;14.75;;;7.20;67.40;;;;;;4994747;28;20042;-45
2023/03/06 01:58:23;;;;;;;23.30;15.25;;;7.30;67.50;;;;;;4994651;28;20413;-47
2023/03/06 02:00:52;;;;;;;24.75;15.65;;;7.30;67.50;;;;;;5002861;28;20046;-47
2023/03/06 02:03:21;;;;;;;20.52;15.90;;;7.30;67.50;;;;;;4994892;28;20085;-46
2023/03/06 02:05:58;;;;;;;21.98;15.05;;;7.30;67.50;;;;;;5011930;28;20466;-48
2023/03/06 02:08:28;;;;;;;21.90;14.77;;;7.30;67.50;;;;;;5012351;28;20406;-46
2023/03/06 02:11:21;;;;;;;23.65;15.15;;;7.20;67.50;;;;;;5019765;28;20437;-46
2023/03/06 02:13:52;;;;;;;23.73;15.55;;;7.20;67.70;;;;;;5010311;28;20044;-46
2023/03/06 02:16:23;;;;;;;24.23;16.40;;;7.20;67.50;;;;;;4995216;28;20057;-46
2023/03/06 02:19:02;;;;;;;26.55;17.65;;;7.20;67.50;;;;;;4999408;28;20038;-47
2023/03/06 02:21:36;;;;;;;25.98;18.33;;;7.20;67.50;;;;;;5009433;28;20045;-46
2023/03/06 02:24:33;;;;;;;25.85;17.05;;;7.20;67.50;;;;;;5002838;28;20137;-47
2023/03/06 02:27:06;;;;;;;25.55;17.77;;;7.30;68.00;;;;;;4994021;28;20146;-49
2023/03/06 02:29:34;;;;;;;23.90;16.60;;;7.20;67.50;;;;;;5011771;28;20034;-47
2023/03/06 02:32:08;;;;;;;24.58;16.85;;;7.20;67.40;;;;;;5012493;28;20040;-48
2023/03/06 02:34:39;;;;;;;23.13;17.13;;;7.20;67.40;;;;;;4995011;28;20041;-48
2023/03/06 02:37:08;;;;;;;24.70;16.02;;;7.20;67.50;;;;;;4994295;28;20050;-46
2023/03/06 02:39:40;;;;;;;23.83;15.73;;;7.30;67.50;;;;;;4995909;28;20034;-46
2023/03/06 02:42:17;;;;;;;22.52;16.00;;;7.20;67.30;;;;;;5004567;28;20524;-47
2023/03/06 02:44:44;;;;;;;22.35;15.55;;;7.20;67.50;;;;;;4994294;28;20076;-48
2023/03/06 02:47:13;;;;;;;21.42;14.63;;;7.20;67.20;;;;;;4994211;28;20092;-46
2023/03/06 02:49:44;;;;;;;25.30;15.45;;;7.20;67.40;;;;;;5015306;28;20792;-45
2023/03/06 02:52:13;;;;;;;23.13;16.25;;;7.20;67.50;;;;;;5009142;28;20041;-46
2023/03/06 02:54:41;;;;;;;20.58;15.82;;;7.20;67.50;;;;;;4998481;28;20042;-46
2023/03/06 02:57:11;;;;;;;24.42;15.77;;;7.20;67.50;;;;;;5011941;28;20046;-45
2023/03/06 02:59:40;;;;;;;22.42;15.73;;;7.20;67.50;;;;;;4998456;28;20033;-44
2023/03/06 03:02:06;;;;;;;26.75;18.00;;;7.20;67.40;;;;;;5005376;28;20112;-45
2023/03/06 03:04:37;;;;;;;23.05;16.52;;;7.20;67.40;;;;;;5011812;28;20100;-46
2023/03/06 03:07:07;;;;;;;26.77;17.77;;;7.20;67.40;;;;;;4993049;28;20593;-46
2023/03/06 03:09:36;;;;;;;27.88;17.90;;;7.10;67.70;;;;;;4999417;28;20045;-45
2023/03/06 03:12:05;;;;;;;30.50;19.23;;;7.10;67.30;;;;;;5001273;28;20419;-46
2023/03/06 03:14:33;;;;;;;30.70;20.05;;;7.10;67.40;;;;;;4993009;28;20449;-46
2023/03/06 03:17:02;;;;;;;29.50;18.58;;;7.10;67.40;;;;;;4993352;28;20042;-48
2023/03/06 03:19:32;;;;;;;33.10;20.35;;;7.10;67.40;;;;;;5015669;28;20052;-49
2023/03/06 03:22:01;;;;;;;26.70;19.48;;;7.10;67.40;;;;;;5020241;28;20050;-45
2023/03/06 03:24:28;;;;;;;36.03;22.27;;;7.10;67.40;;;;;;4999351;28;20045;-47
2023/03/06 03:27:01;;;;;;;34.67;22.10;;;7.10;67.40;;;;;;5011030;28;20091;-47
2023/03/06 03:29:27;;;;;;;37.13;23.05;;;7.10;67.50;;;;;;5015175;28;20034;-47
2023/03/06 03:31:56;;;;;;;37.53;22.48;;;7.10;67.40;;;;;;5004709;28;20520;-46
2023/03/06 03:34:28;;;;;;;34.33;22.15;;;7.10;67.40;;;;;;4993618;28;20073;-49
2023/03/06 03:36:57;;;;;;;31.20;20.77;;;7.10;67.40;;;;;;5011715;28;20061;-46
2023/03/06 03:39:25;;;;;;;31.63;20.88;;;7.10;67.60;;;;;;5018860;28;20557;-46
2023/03/06 03:41:59;;;;;;;33.95;21.40;;;7.10;67.60;;;;;;4993018;28;20045;-46
2023/03/06 03:44:26;;;;;;;32.55;20.33;;;7.10;67.70;;;;;;4993603;28;20142;-46
2023/03/06 03:46:54;;;;;;;31.85;19.80;;;7.10;67.40;;;;;;5000102;28;20059;-48
2023/03/06 03:49:25;;;;;;;35.67;20.83;;;7.10;67.40;;;;;;5013079;28;20778;-46
2023/03/06 03:51:55;;;;;;;31.83;20.13;;;7.10;67.40;;;;;;5004604;28;20091;-47
2023/03/06 03:54:28;;;;;;;33.25;21.08;;;7.10;67.50;;;;;;4999700;28;20045;-46
2023/03/06 03:56:55;;;;;;;32.53;19.90;;;7.10;67.60;;;;;;4992324;28;20165;-45
2023/03/06 03:59:31;;;;;;;31.25;20.75;;;7.10;67.50;;;;;;4996524;28;20050;-48
2023/03/06 04:02:14;;;;;;;33.30;20.95;;;7.10;67.60;;;;;;5001681;28;20442;-45
2023/03/06 04:04:53;;;;;;;31.85;19.30;;;7.10;67.50;;;;;;4993045;28;20046;-46
2023/03/06 04:07:24;;;;;;;29.55;19.60;;;7.10;67.70;;;;;;4992194;28;20053;-48
2023/03/06 04:09:53;;;;;;;29.25;19.42;;;7.10;67.70;;;;;;5005110;28;20046;-46
2023/03/06 04:12:19;;;;;;;28.77;19.42;;;7.10;67.50;;;;;;4994200;28;20065;-46
2023/03/06 04:14:47;;;;;;;28.70;20.08;;;7.10;67.40;;;;;;5009786;28;20034;-47
2023/03/06 04:17:14;;;;;;;33.53;21.02;;;7.10;67.50;;;;;;4998214;28;20164;-46
2023/03/06 04:19:44;;;;;;;32.13;20.13;;;7.10;67.40;;;;;;5003978;28;20041;-46
2023/03/06 04:22:13;;;;;;;33.65;20.42;;;7.10;67.40;;;;;;5006697;28;20054;-46
2023/03/06 04:24:42;;;;;;;32.05;19.95;;;7.10;67.40;;;;;;4998625;28;20200;-47
2023/03/06 04:27:08;;;;;;;29.63;18.77;;;7.10;67.40;;;;;;4992442;28;20541;-45
2023/03/06 04:29:35;;;;;;;30.13;17.52;;;7.10;67.20;;;;;;4992769;28;20037;-45
2023/03/06 04:32:02;;;;;;;28.83;18.60;;;7.10;67.20;;;;;;5028453;28;20047;-47
2023/03/06 04:34:38;;;;;;;24.92;18.23;;;7.10;67.20;;;;;;5019603;28;20037;-47
2023/03/06 04:37:05;;;;;;;26.85;18.17;;;7.10;67.30;;;;;;5012067;28;20042;-49
2023/03/06 04:39:35;;;;;;;26.88;18.50;;;7.10;67.20;;;;;;5004263;28;20084;-48
2023/03/06 04:42:06;;;;;;;25.45;15.15;;;7.10;67.10;;;;;;5009835;28;20096;-47
2023/03/06 04:44:35;;;;;;;23.92;15.55;;;7.10;66.90;;;;;;5009635;28;20454;-46
2023/03/06 04:47:02;;;;;;;23.73;14.57;;;7.00;66.70;;;;;;5021890;28;20045;-46
2023/03/06 04:49:29;;;;;;;25.13;15.60;;;7.00;66.70;;;;;;5009623;28;20721;-47
2023/03/06 04:51:55;;;;;;;21.10;14.95;;;7.00;66.60;;;;;;5016342;28;20457;-46
2023/03/06 04:54:25;;;;;;;24.30;14.63;;;7.00;66.50;;;;;;5017602;28;20069;-47
2023/03/06 04:56:54;;;;;;;23.77;15.82;;;6.90;66.60;;;;;;5019092;28;20037;-49
2023/03/06 04:59:21;;;;;;;25.98;15.48;;;6.90;66.60;;;;;;5016240;28;20056;-46
2023/03/06 05:01:47;;;;;;;23.35;15.50;;;6.90;66.60;;;;;;5009347;28;20050;-45
2023/03/06 05:04:14;;;;;;;27.38;17.42;;;6.90;66.60;;;;;;5009957;28;20042;-47
2023/03/06 05:06:40;;;;;;;26.05;16.83;;;6.90;66.70;;;;;;5009565;28;20355;-46
2023/03/06 05:09:14;;;;;;;27.88;17.38;;;6.90;66.70;;;;;;5009664;28;20041;-47
2023/03/06 05:11:42;;;;;;;27.75;17.35;;;6.90;66.70;;;;;;5009053;28;20034;-46
2023/03/06 05:14:19;;;;;;;28.48;17.02;;;6.80;66.60;;;;;;5022015;28;20056;-47
2023/03/06 05:16:49;;;;;;;31.27;18.17;;;6.80;66.60;;;;;;5009827;28;20398;-46
2023/03/06 05:19:19;;;;;;;24.80;16.05;;;6.80;66.60;;;;;;5013653;28;20100;-48
2023/03/06 05:21:45;;;;;;;26.33;16.52;;;6.80;66.60;;;;;;5017731;28;20564;-47
2023/03/06 05:24:13;;;;;;;27.77;16.23;;;6.80;66.60;;;;;;5023044;28;20426;-47
2023/03/06 05:26:45;;;;;;;27.45;16.83;;;6.80;66.70;;;;;;5012942;28;20038;-47
2023/03/06 05:29:12;;;;;;;;;;;6.70;66.60;;;;;;5013315;28;20033;-48
2023/03/06 05:31:41;;;;;;;26.38;14.27;;;6.80;66.90;;;;;;5020419;28;20039;-46
2023/03/06 05:34:12;;;;;;;24.13;15.00;;;6.80;66.30;;;;;;5017117;28;20048;-46
2023/03/06 05:36:39;;;;;;;22.83;15.65;;;6.70;66.50;;;;;;5017638;28;20405;-46
2023/03/06 05:39:08;;;;;;;26.35;15.95;;;6.70;66.50;;;;;;5026560;28;20520;-49
2023/03/06 05:41:35;;;;;;;26.00;16.40;;;6.70;66.70;;;;;;5027194;28;20065;-48
2023/03/06 05:44:12;;;;;;;23.42;15.65;;;6.70;66.80;;;;;;5030428;28;20100;-50
2023/03/06 05:46:41;;;;;;;27.60;16.52;;;6.60;66.90;;;;;;5028177;28;20046;-46
2023/03/06 05:49:10;;;;;;;22.90;15.85;;;6.60;67.10;;;;;;5029343;28;20049;-47
2023/03/06 05:51:39;;;;;;;24.48;16.00;;;6.60;67.10;;;;;;5026816;28;20406;-48
2023/03/06 05:54:09;;;;;;;25.52;17.60;;;6.60;67.10;;;;;;5030419;28;20052;-46
2023/03/06 05:56:36;;;;;;;23.35;15.93;;;6.60;67.10;;;;;;5025042;28;20046;-46
2023/03/06 05:59:14;;;;;;;27.58;17.10;;;6.70;67.20;;;;;;5017095;28;20131;-46
2023/03/06 06:01:41;;;;;;;27.10;15.18;;;6.70;67.40;;;;;;5012870;28;20422;-46
2023/03/06 06:04:10;;;;;;;26.42;16.05;;;6.70;67.20;;;;;;5013435;28;20049;-47
2023/03/06 06:06:44;;;;;;;28.10;15.93;;;6.70;67.20;;;;;;5022363;28;20073;-45
2023/03/06 06:09:15;;;;;;;28.45;16.50;;;6.70;67.10;;;;;;5015971;28;20048;-46
2023/03/06 06:11:44;;;;;;;29.70;17.42;;;6.60;67.00;;;;;;5011665;28;20050;-46
2023/03/06 06:14:13;;;;;;;29.48;17.15;;;6.70;67.00;;;;;;5026251;28;20486;-46
2023/03/06 06:16:43;;;;;;;28.88;17.75;;;6.60;67.00;;;;;;5019613;28;20052;-47
2023/03/06 06:19:19;;;;;;;32.15;18.75;;;6.60;67.10;;;;;;5012612;28;20042;-47
2023/03/06 06:21:49;;;;;;;32.30;18.48;;;6.60;67.10;;;;;;5017571;28;20073;-50
2023/03/06 06:24:23;;;;;;;34.00;19.30;;;6.70;67.20;;;;;;5024733;28;20120;-49
2023/03/06 06:26:54;;;;;;;39.22;22.85;;;6.60;67.10;;;;;;5017984;28;20601;-46
2023/03/06 06:29:21;;;;;;;45.70;26.05;;;6.60;67.10;;;;;;5019227;28;20053;-47
2023/03/06 06:31:59;;;;;;;43.70;23.88;;;6.60;67.10;;;;;;5016355;28;20042;-46
2023/03/06 06:34:31;;;;;;;43.75;26.35;;;6.60;67.40;;;;;;5011190;28;20046;-48
2023/03/06 06:37:05;;;;;;;44.22;24.40;;;6.60;67.40;;;;;;5023766;28;20580;-46
2023/03/06 06:39:33;;;;;;;43.80;25.90;;;6.60;67.40;;;;;;5012042;28;20051;-49
2023/03/06 06:42:01;;;;;;;45.38;25.73;;;6.60;67.40;;;;;;5015122;28;20054;-47
2023/03/06 06:44:50;;;;;;;45.35;26.13;;;6.60;67.40;;;;;;5016083;28;20127;-46
2023/03/06 06:47:16;;;;;;;44.78;26.10;;;6.60;67.40;;;;;;5019877;28;20050;-45
2023/03/06 06:49:53;;;;;;;48.70;27.35;;;6.60;67.50;;;;;;5026601;28;20111;-50
2023/03/06 06:52:32;;;;;;;45.97;28.02;;;6.60;67.40;;;;;;5025607;28;20061;-47
2023/03/06 06:55:01;;;;;;;45.90;27.05;;;6.70;67.50;;;;;;5024089;28;20036;-47
2023/03/06 06:57:28;;;;;;;45.30;25.55;;;6.70;67.70;;;;;;5025137;28;20041;-50
2023/03/06 06:59:57;;;;;;;47.40;27.55;;;6.70;67.70;;;;;;5010624;28;20053;-49
2023/03/06 07:02:26;;;;;;;39.70;24.70;;;6.70;67.80;;;;;;5014730;28;20045;-45
2023/03/06 07:04:53;;;;;;;40.63;24.73;;;6.70;67.60;;;;;;5000593;28;20045;-47
2023/03/06 07:07:35;;;;;;;39.33;23.77;;;6.70;67.50;;;;;;5018172;28;20516;-48
2023/03/06 07:10:10;;;;;;;37.28;22.75;;;6.70;67.40;;;;;;5010201;28;20042;-48
2023/03/06 07:12:41;;;;;;;36.05;23.25;;;6.70;67.50;;;;;;5010745;28;20129;-46
2023/03/06 07:15:10;;;;;;;36.42;23.48;;;6.70;67.40;;;;;;5019322;28;20041;-47
2023/03/06 07:17:42;;;;;;;34.88;21.25;;;6.70;67.40;;;;;;5017554;28;20100;-46
2023/03/06 07:20:15;;;;;;;39.50;24.30;;;6.70;67.40;;;;;;5015089;28;20115;-48
2023/03/06 07:22:41;;;;;;;38.53;23.60;;;6.70;67.40;;;;;;5026205;28;20384;-50
2023/03/06 07:25:22;;;;;;;39.70;24.15;;;6.70;67.50;;;;;;5024437;28;20045;-48
2023/03/06 07:27:53;;;;;;;39.17;23.92;;;6.80;67.70;;;;;;5025939;28;20667;-48
2023/03/06 07:30:24;;;;;;;41.25;25.88;;;6.80;67.70;;;;;;5021841;28;20112;-47
2023/03/06 07:32:57;;;;;;;43.28;25.23;;;6.80;67.40;;;;;;5027145;28;20049;-50
2023/03/06 07:35:25;;;;;;;41.00;22.98;;;6.80;67.50;;;;;;5025908;28;20037;-49
2023/03/06 07:37:54;;;;;;;41.90;27.13;;;6.80;67.60;;;;;;5009216;28;20042;-47
2023/03/06 07:40:23;;;;;;;40.00;24.25;;;6.80;67.60;;;;;;5025038;28;20048;-49
2023/03/06 07:42:55;;;;;;;40.90;23.75;;;6.90;67.60;;;;;;5025878;28;20050;-47
2023/03/06 07:45:42;;;;;;;38.78;23.98;;;6.90;67.50;;;;;;5006884;28;20100;-50
2023/03/06 07:48:13;;;;;;;39.72;24.20;;;6.90;67.30;;;;;;5027028;28;20080;-45
2023/03/06 07:51:02;;;;;;;37.88;23.70;;;6.90;67.30;;;;;;5024663;28;20041;-50
2023/03/06 07:53:39;;;;;;;43.47;26.35;;;7.00;67.50;;;;;;5027368;28;20065;-49
2023/03/06 07:56:08;;;;;;;41.78;24.98;;;7.00;67.30;;;;;;5024035;28;20069;-49
2023/03/06 07:58:37;;;;;;;39.10;24.48;;;7.00;67.60;;;;;;5017436;28;20672;-48
2023/03/06 08:01:09;;;;;;;43.58;26.83;;;7.00;67.30;;;;;;5010532;28;20049;-46
2023/03/06 08:03:36;;;;;;;42.78;26.17;;;7.10;67.40;;;;;;5011105;28;20049;-46
2023/03/06 08:06:26;;;;;;;43.47;26.33;;;7.10;67.40;;;;;;5019291;28;20045;-47
2023/03/06 08:09:02;;;;;;;43.60;25.23;;;7.20;67.50;;;;;;5018585;28;20056;-49
2023/03/06 08:11:32;;;;;;;41.45;25.70;;;7.20;67.10;;;;;;5012998;28;20581;-48
2023/03/06 08:14:04;;;;;;;42.95;25.67;;;7.20;67.10;;;;;;5024496;28;20086;-47
2023/03/06 08:16:32;;;;;;;40.00;25.83;;;7.30;67.10;;;;;;5025642;28;20364;-47
2023/03/06 08:19:00;;;;;;;41.25;26.23;;;7.30;67.00;;;;;;5009668;28;20081;-48
2023/03/06 08:21:27;;;;;;;44.40;26.67;;;7.30;66.90;;;;;;5027434;28;20506;-50
2023/03/06 08:23:54;;;;;;;47.53;28.00;;;7.30;66.90;;;;;;5026562;28;20037;-50
2023/03/06 08:26:23;;;;;;;46.35;26.80;;;7.30;66.80;;;;;;5025247;28;20060;-47
2023/03/06 08:28:57;;;;;;;40.72;25.88;;;7.40;66.60;;;;;;5023029;28;20056;-48
2023/03/06 08:31:39;;;;;;;40.00;26.85;;;7.40;66.60;;;;;;5023658;28;20393;-49
2023/03/06 08:34:09;;;;;;;42.90;25.95;;;7.40;66.50;;;;;;5006960;28;20073;-49
2023/03/06 08:36:39;;;;;;;43.25;27.27;;;7.50;66.60;;;;;;5024680;28;20041;-46
2023/03/06 08:39:07;;;;;;;42.72;27.25;;;7.50;66.70;;;;;;5027105;28;20052;-47
2023/03/06 08:41:34;;;;;;;44.35;26.67;;;7.50;66.60;;;;;;5025164;28;20530;-47
2023/03/06 08:44:05;;;;;;;45.33;26.35;;;7.60;66.70;;;;;;5025364;28;20052;-46
2023/03/06 08:46:33;;;;;;;41.97;26.55;;;7.60;66.80;;;;;;5023455;28;20124;-50
2023/03/06 08:49:04;;;;;;;44.85;27.08;;;7.60;66.70;;;;;;5025620;28;20064;-46
2023/03/06 08:51:31;;;;;;;37.60;24.10;;;7.70;66.60;;;;;;5006312;28;20041;-46
2023/03/06 08:53:59;;;;;;;38.08;24.40;;;7.70;66.50;;;;;;5024091;28;20099;-47
2023/03/06 08:56:29;;;;;;;34.38;22.60;;;7.80;66.60;;;;;;5024660;28;20046;-50
2023/03/06 08:58:59;;;;;;;37.45;22.52;;;7.80;66.50;;;;;;5025564;28;20044;-46
2023/03/06 09:01:28;;;;;;;38.55;22.38;;;7.90;66.30;;;;;;5025116;28;20043;-48
2023/03/06 09:04:00;;;;;;;38.53;23.35;;;7.90;66.00;;;;;;5011525;28;20529;-47
2023/03/06 09:06:31;;;;;;;36.72;24.13;;;7.90;65.90;;;;;;5013908;28;20117;-46
2023/03/06 09:09:08;;;;;;;34.92;22.85;;;7.90;65.80;;;;;;5014967;28;20501;-49
2023/03/06 09:11:37;;;;;;;35.83;23.42;;;8.00;65.80;;;;;;5012977;28;20044;-48
2023/03/06 09:14:07;;;;;;;39.47;24.70;;;8.00;65.70;;;;;;5014689;28;20042;-49
2023/03/06 09:16:37;;;;;;;35.13;23.40;;;8.00;65.60;;;;;;5019499;28;20413;-46
2023/03/06 09:19:03;;;;;;;33.83;22.52;;;8.00;65.80;;;;;;4995127;28;20053;-47
2023/03/06 09:21:32;;;;;;;37.88;24.30;;;8.00;65.80;;;;;;5025269;28;20052;-46
2023/03/06 09:24:02;;;;;;;32.47;22.27;;;8.00;65.90;;;;;;5016287;28;20046;-49
2023/03/06 09:26:28;;;;;;;37.72;23.23;;;8.00;65.90;;;;;;5014535;28;20042;-46
2023/03/06 09:29:12;;;;;;;37.83;22.60;;;7.90;65.90;;;;;;5009075;28;20065;-47
2023/03/06 09:31:38;;;;;;;36.20;23.50;;;7.90;66.00;;;;;;5016084;28;20061;-46
2023/03/06 09:34:08;;;;;;;35.08;22.58;;;7.90;66.00;;;;;;5007718;28;20064;-48
2023/03/06 09:36:37;;;;;;;34.00;21.23;;;7.90;66.10;;;;;;5009703;28;20549;-48
2023/03/06 09:39:22;;;;;;;36.10;22.63;;;7.80;66.00;;;;;;5017744;28;20050;-47
2023/03/06 09:41:55;;;;;;;37.17;23.52;;;7.80;66.10;;;;;;5014757;28;20046;-46
2023/03/06 09:44:25;;;;;;;37.35;23.25;;;7.80;66.30;;;;;;5022502;28;20057;-46
2023/03/06 09:47:07;;;;;;;33.03;21.70;;;7.70;66.40;;;;;;5010034;28;20096;-45
2023/03/06 09:50:08;;;;;;;33.53;21.38;;;7.80;67.00;;;;;;5016676;28;20120;-47
2023/03/06 09:53:01;;;;;;;36.13;21.45;;;7.80;66.90;;;;;;5012787;28;20070;-49
2023/03/06 09:55:31;;;;;;;32.40;21.23;;;7.80;66.90;;;;;;5014252;28;20041;-48
2023/03/06 09:58:24;;;;;;;34.05;20.80;;;7.80;66.50;;;;;;5016162;28;20108;-49
2023/03/06 10:01:10;;;;;;;36.72;21.63;;;7.80;66.80;;;;;;5008660;28;20060;-46
2023/03/06 10:03:48;;;;;;;33.95;21.08;;;7.80;66.80;;;;;;5015265;28;20060;-48
2023/03/06 10:06:28;;;;;;;33.10;21.33;;;7.80;66.80;;;;;;5025821;28;20578;-48
2023/03/06 10:09:17;;;;;;;35.40;21.92;;;7.90;67.00;;;;;;5013144;28;20537;-48
2023/03/06 10:12:15;;;;;;;36.75;22.42;;;7.90;66.90;;;;;;5019485;28;20033;-48
2023/03/06 10:14:56;;;;;;;33.42;21.55;;;7.90;67.10;;;;;;5016626;28;20053;-45
2023/03/06 10:17:25;;;;;;;37.58;22.80;;;8.00;67.00;;;;;;5013673;28;20046;-46
2023/03/06 10:19:54;;;;;;;34.90;21.67;;;8.00;66.80;;;;;;5015019;28;20052;-48
2023/03/06 10:22:31;;;;;;;34.47;22.42;;;8.00;66.70;;;;;;5018649;28;20125;-47
2023/03/06 10:25:26;;;;;;;34.70;21.50;;;8.10;66.80;;;;;;5013861;28;20667;-47
2023/03/06 10:28:04;;;;;;;36.28;22.23;;;8.10;66.90;;;;;;5012730;28;20038;-49
2023/03/06 10:30:59;;;;;;;38.92;23.65;;;8.20;66.90;;;;;;5013779;28;20048;-48
2023/03/06 10:33:47;;;;;;;32.80;21.05;;;8.30;67.00;;;;;;5016168;28;20084;-47
2023/03/06 10:36:18;;;;;;;32.38;21.20;;;8.30;66.70;;;;;;5012748;28;20049;-50
2023/03/06 10:38:47;;;;;;;32.40;21.67;;;8.30;66.40;;;;;;5012792;28;20052;-47
2023/03/06 10:41:37;;;;;;;36.40;21.92;;;8.30;66.30;;;;;;5024169;28;20121;-47
2023/03/06 10:44:03;;;;;;;31.38;20.80;;;8.30;66.30;;;;;;5011629;28;20046;-47
2023/03/06 10:46:44;;;;;;;34.97;20.95;;;8.40;66.10;;;;;;5012530;28;20494;-48
2023/03/06 10:49:33;;;;;;;31.33;22.10;;;8.40;66.10;;;;;;5001319;28;20144;-47
2023/03/06 10:52:20;;;;;;;34.42;20.88;;;8.40;66.00;;;;;;5026050;28;20054;-47
2023/03/06 10:54:48;;;;;;;34.92;21.08;;;8.40;66.00;;;;;;5022848;28;20060;-47
2023/03/06 10:57:18;;;;;;;31.77;21.63;;;8.40;65.90;;;;;;5030248;28;20033;-47
2023/03/06 10:59:55;;;;;;;33.33;21.05;;;8.40;65.80;;;;;;5023818;28;20070;-49
2023/03/06 11:02:30;;;;;;;31.73;21.00;;;8.40;65.90;;;;;;5015898;28;20042;-48
2023/03/06 11:05:00;;;;;;;30.73;18.88;;;8.40;66.00;;;;;;5014231;28;20499;-46
2023/03/06 11:07:31;;;;;;;25.23;17.55;;;8.50;65.90;;;;;;5019713;28;20057;-50
2023/03/06 11:10:16;;;;;;;27.70;17.23;;;8.50;65.70;;;;;;5027377;28;20076;-49
2023/03/06 11:13:00;;;;;;;27.80;17.23;;;8.50;65.60;;;;;;5025833;28;20047;-50
2023/03/06 11:15:28;;;;;;;29.35;18.27;;;8.50;65.30;;;;;;5027599;28;20067;-49
2023/03/06 11:18:03;;;;;;;27.27;17.10;;;8.50;65.20;;;;;;5029986;28;20115;-48
2023/03/06 11:20:48;;;;;;;26.42;17.15;;;8.50;65.20;;;;;;5026857;28;20037;-47
2023/03/06 11:23:36;;;;;;;25.10;15.82;;;8.40;65.40;;;;;;5029258;28;20041;-49
2023/03/06 11:26:14;;;;;;;25.00;17.00;;;8.40;65.20;;;;;;5027875;28;20057;-48
2023/03/06 11:29:00;;;;;;;31.88;18.52;;;8.40;65.30;;;;;;5045615;23;20053;-50
2023/03/06 11:31:38;;;;;;;26.15;18.75;;;8.40;65.30;;;;;;5024170;28;20122;-47
2023/03/06 11:34:17;;;;;;;30.88;19.30;;;8.30;65.40;;;;;;5026776;28;20720;-49
2023/03/06 11:36:53;;;;;;;29.02;19.33;;;8.30;65.50;;;;;;5029355;28;20048;-49
2023/03/06 11:39:31;;;;;;;24.42;17.50;;;8.40;65.60;;;;;;5030368;28;20048;-47
2023/03/06 11:42:28;;;;;;;20.50;13.20;;;8.40;65.80;;;;;;5023729;28;20068;-46
2023/03/06 11:45:27;;;;;;;27.70;18.13;;;8.40;66.00;;;;;;5030842;28;20049;-50
2023/03/06 11:48:14;;;;;;;29.05;19.23;;;8.40;65.90;;;;;;5027850;28;20033;-49
2023/03/06 11:50:47;;;;;;;28.73;18.20;;;8.40;65.90;;;;;;5016976;28;20035;-46
2023/03/06 11:53:18;;;;;;;30.38;17.95;;;8.40;65.80;;;;;;5029819;28;20116;-49
2023/03/06 11:56:09;;;;;;;27.20;16.92;;;8.50;65.80;;;;;;5027127;28;20120;-53
2023/03/06 11:59:20;;;;;;;24.83;16.52;;;8.50;66.00;;;;;;5030853;28;20410;-53
2023/03/06 12:02:20;;;;;;;24.75;16.08;;;8.50;65.90;;;;;;5027995;28;20516;-48
2023/03/06 12:05:19;;;;;;;26.88;16.70;;;8.60;65.90;;;;;;5024965;28;20099;-49
2023/03/06 12:08:16;;;;;;;22.10;16.38;;;8.60;66.00;;;;;;5023745;28;20045;-51
2023/03/06 12:10:46;;;;;;;23.35;16.35;;;8.60;66.20;;;;;;5021927;28;20402;-49
2023/03/06 12:13:42;;;;;;;24.92;17.40;;;8.80;66.00;;;;;;5021518;28;20061;-53
2023/03/06 12:16:28;;;;;;;25.27;16.08;;;8.80;65.80;;;;;;5026037;28;20052;-48
2023/03/06 12:19:23;;;;;;;23.92;16.27;;;8.90;65.60;;;;;;5022275;28;20054;-49
2023/03/06 12:22:00;;;;;;;26.42;17.98;;;9.00;65.40;;;;;;5022074;28;20052;-48
2023/03/06 12:25:05;;;;;;;29.50;18.60;;;9.00;65.10;;;;;;5020775;28;20053;-50
2023/03/06 12:27:51;;;;;;;30.15;18.98;;;9.10;65.00;;;;;;5020059;28;20048;-53
2023/03/06 12:30:50;;;;;;;26.70;17.80;;;9.10;64.70;;;;;;5021685;28;20033;-48
2023/03/06 12:33:36;;;;;;;27.23;16.77;;;9.10;64.90;;;;;;5022133;28;20129;-51
2023/03/06 12:36:29;;;;;;;30.35;18.63;;;9.10;64.70;;;;;;5022205;28;20052;-53
2023/03/06 12:39:19;;;;;;;27.02;18.75;;;9.10;64.50;;;;;;5024796;28;20052;-49
2023/03/06 12:42:03;;;;;;;28.67;18.98;;;9.10;64.40;;;;;;5021871;28;20125;-51
2023/03/06 12:45:07;;;;;;;28.70;19.15;;;9.10;64.50;;;;;;5022660;28;20045;-49
2023/03/06 12:47:43;;;;;;;23.73;17.08;;;9.20;64.50;;;;;;5020197;28;20056;-47
2023/03/06 12:50:43;;;;;;;23.02;15.20;;;9.20;64.60;;;;;;5020757;28;20037;-52
2023/03/06 12:53:26;;;;;;;20.58;14.05;;;9.10;64.60;;;;;;5025357;28;20117;-52
2023/03/06 12:55:54;;;;;;;;;;;9.20;64.50;;;;;;5023799;28;20037;-50
2023/03/06 12:58:30;;;;;;;21.10;14.40;;;9.20;64.70;;;;;;5022703;28;19921;-49
2023/03/06 13:01:38;;;;;;;20.42;14.55;;;9.30;64.90;;;;;;5023250;28;20116;-52
2023/03/06 13:04:28;;;;;;;21.42;15.15;;;9.30;64.60;;;;;;5020778;28;20048;-49
2023/03/06 13:07:13;;;;;;;20.30;15.18;;;9.40;64.70;;;;;;5025340;28;20091;-51
2023/03/06 13:10:14;;;;;;;22.55;16.85;;;9.40;64.50;;;;;;5028258;28;20045;-49
2023/03/06 13:13:18;;;;;;;25.00;16.98;;;9.50;64.80;;;;;;5021906;28;20133;-49